sensor_id;sensor_type;location;lat;lon;timestamp;temperature;humidity
52919;DHT22;38793;52.690;6.812;2023-12-22T00:00:40;6.30;99.90
52919;DHT22;38793;52.690;6.812;2023-12-22T00:03:06;6.30;99.90
52919;DHT22;38793;52.690;6.812;2023-12-22T00:05:32;6.40;99.90
52919;DHT22;38793;52.690;6.812;2023-12-22T00:07:57;6.40;99.90
52919;DHT22;38793;52.690;6.812;2023-12-22T00:10:23;6.40;99.90
52919;DHT22;38793;52.690;6.812;2023-12-22T00:12:48;6.50;99.90
52919;DHT22;38793;52.690;6.812;2023-12-22T00:15:14;6.50;99.90
52919;DHT22;38793;52.690;6.812;2023-12-22T00:17:39;6.40;99.90
52919;DHT22;38793;52.690;6.812;2023-12-22T00:20:05;6.40;99.90
52919;DHT22;38793;52.690;6.812;2023-12-22T00:22:31;6.30;99.90
52919;DHT22;38793;52.690;6.812;2023-12-22T00:24:57;6.30;99.90
52919;DHT22;38793;52.690;6.812;2023-12-22T00:27:22;6.30;99.90
52919;DHT22;38793;52.690;6.812;2023-12-22T00:29:48;6.30;99.90
52919;DHT22;38793;52.690;6.812;2023-12-22T00:32:13;6.20;99.90
52919;DHT22;38793;52.690;6.812;2023-12-22T00:34:39;6.20;99.90
52919;DHT22;38793;52.690;6.812;2023-12-22T00:37:04;6.20;99.90
52919;DHT22;38793;52.690;6.812;2023-12-22T00:39:30;6.20;99.90
52919;DHT22;38793;52.690;6.812;2023-12-22T00:41:56;6.10;99.90
52919;DHT22;38793;52.690;6.812;2023-12-22T00:44:22;6.10;99.90
52919;DHT22;38793;52.690;6.812;2023-12-22T00:46:48;6.10;99.90
52919;DHT22;38793;52.690;6.812;2023-12-22T00:49:14;6.10;99.90
52919;DHT22;38793;52.690;6.812;2023-12-22T00:51:40;6.10;99.90
52919;DHT22;38793;52.690;6.812;2023-12-22T00:54:05;6.10;99.90
52919;DHT22;38793;52.690;6.812;2023-12-22T00:56:31;6.20;99.90
52919;DHT22;38793;52.690;6.812;2023-12-22T00:58:56;6.20;99.90
52919;DHT22;38793;52.690;6.812;2023-12-22T01:01:22;6.20;99.90
52919;DHT22;38793;52.690;6.812;2023-12-22T01:03:48;6.20;99.90
52919;DHT22;38793;52.690;6.812;2023-12-22T01:06:13;6.10;99.90
52919;DHT22;38793;52.690;6.812;2023-12-22T01:08:40;6.10;99.90
52919;DHT22;38793;52.690;6.812;2023-12-22T01:11:06;6.10;99.90
52919;DHT22;38793;52.690;6.812;2023-12-22T01:13:31;6.00;99.90
52919;DHT22;38793;52.690;6.812;2023-12-22T01:15:57;6.00;99.90
52919;DHT22;38793;52.690;6.812;2023-12-22T01:18:23;5.90;99.90
52919;DHT22;38793;52.690;6.812;2023-12-22T01:20:50;5.90;99.90
52919;DHT22;38793;52.690;6.812;2023-12-22T01:23:16;6.00;99.90
52919;DHT22;38793;52.690;6.812;2023-12-22T01:25:41;6.00;99.90
52919;DHT22;38793;52.690;6.812;2023-12-22T01:28:07;6.00;99.90
52919;DHT22;38793;52.690;6.812;2023-12-22T01:30:33;6.00;99.90
52919;DHT22;38793;52.690;6.812;2023-12-22T01:32:58;6.10;99.90
52919;DHT22;38793;52.690;6.812;2023-12-22T01:35:24;6.10;99.90
52919;DHT22;38793;52.690;6.812;2023-12-22T01:37:49;6.10;99.90
52919;DHT22;38793;52.690;6.812;2023-12-22T01:40:16;6.20;99.90
52919;DHT22;38793;52.690;6.812;2023-12-22T01:42:42;6.20;99.90
52919;DHT22;38793;52.690;6.812;2023-12-22T01:45:08;6.20;99.90
52919;DHT22;38793;52.690;6.812;2023-12-22T01:47:34;6.20;99.90
52919;DHT22;38793;52.690;6.812;2023-12-22T01:50:00;6.20;99.90
52919;DHT22;38793;52.690;6.812;2023-12-22T01:52:27;6.20;99.90
52919;DHT22;38793;52.690;6.812;2023-12-22T01:54:52;6.20;99.90
52919;DHT22;38793;52.690;6.812;2023-12-22T01:57:20;6.20;99.90
52919;DHT22;38793;52.690;6.812;2023-12-22T01:59:46;6.20;99.90
52919;DHT22;38793;52.690;6.812;2023-12-22T02:02:13;6.10;99.90
52919;DHT22;38793;52.690;6.812;2023-12-22T02:04:39;6.10;99.90
52919;DHT22;38793;52.690;6.812;2023-12-22T02:07:06;6.10;99.90
52919;DHT22;38793;52.690;6.812;2023-12-22T02:09:33;6.10;99.90
52919;DHT22;38793;52.690;6.812;2023-12-22T02:11:59;6.10;99.90
52919;DHT22;38793;52.690;6.812;2023-12-22T02:14:24;6.10;99.90
52919;DHT22;38793;52.690;6.812;2023-12-22T02:17:15;6.10;99.90
52919;DHT22;38793;52.690;6.812;2023-12-22T02:19:47;6.10;99.90
52919;DHT22;38793;52.690;6.812;2023-12-22T02:22:13;6.00;99.90
52919;DHT22;38793;52.690;6.812;2023-12-22T02:24:40;6.00;99.90
52919;DHT22;38793;52.690;6.812;2023-12-22T02:27:14;6.00;99.90
52919;DHT22;38793;52.690;6.812;2023-12-22T02:29:52;6.00;99.90
52919;DHT22;38793;52.690;6.812;2023-12-22T02:32:32;6.00;99.90
52919;DHT22;38793;52.690;6.812;2023-12-22T02:35:07;6.00;99.90
52919;DHT22;38793;52.690;6.812;2023-12-22T02:37:35;6.00;99.90
52919;DHT22;38793;52.690;6.812;2023-12-22T02:40:02;6.00;99.90
52919;DHT22;38793;52.690;6.812;2023-12-22T02:42:29;6.00;99.90
52919;DHT22;38793;52.690;6.812;2023-12-22T02:44:59;6.00;99.90
52919;DHT22;38793;52.690;6.812;2023-12-22T02:47:25;6.00;99.90
52919;DHT22;38793;52.690;6.812;2023-12-22T02:49:53;6.10;99.90
52919;DHT22;38793;52.690;6.812;2023-12-22T02:52:19;6.10;99.90
52919;DHT22;38793;52.690;6.812;2023-12-22T02:54:44;6.20;99.90
52919;DHT22;38793;52.690;6.812;2023-12-22T02:57:12;6.10;99.90
52919;DHT22;38793;52.690;6.812;2023-12-22T02:59:38;6.10;99.90
52919;DHT22;38793;52.690;6.812;2023-12-22T03:02:04;6.00;99.90
52919;DHT22;38793;52.690;6.812;2023-12-22T03:04:30;6.00;99.90
52919;DHT22;38793;52.690;6.812;2023-12-22T03:06:55;5.90;99.90
52919;DHT22;38793;52.690;6.812;2023-12-22T03:09:21;5.90;99.90
52919;DHT22;38793;52.690;6.812;2023-12-22T03:11:48;6.00;99.90
52919;DHT22;38793;52.690;6.812;2023-12-22T03:14:13;6.00;99.90
52919;DHT22;38793;52.690;6.812;2023-12-22T03:16:39;6.00;99.90
52919;DHT22;38793;52.690;6.812;2023-12-22T03:19:06;6.10;99.90
52919;DHT22;38793;52.690;6.812;2023-12-22T03:21:32;6.10;99.90
52919;DHT22;38793;52.690;6.812;2023-12-22T03:23:58;6.10;99.90
52919;DHT22;38793;52.690;6.812;2023-12-22T03:26:25;6.10;99.90
52919;DHT22;38793;52.690;6.812;2023-12-22T03:28:51;6.10;99.90
52919;DHT22;38793;52.690;6.812;2023-12-22T03:31:17;6.10;99.90
52919;DHT22;38793;52.690;6.812;2023-12-22T03:33:42;6.00;99.90
52919;DHT22;38793;52.690;6.812;2023-12-22T03:36:08;6.00;99.90
52919;DHT22;38793;52.690;6.812;2023-12-22T03:38:33;6.00;99.90
52919;DHT22;38793;52.690;6.812;2023-12-22T03:40:59;5.90;99.90
52919;DHT22;38793;52.690;6.812;2023-12-22T03:43:25;5.90;99.90
52919;DHT22;38793;52.690;6.812;2023-12-22T03:45:50;5.80;99.90
52919;DHT22;38793;52.690;6.812;2023-12-22T03:48:16;5.80;99.90
52919;DHT22;38793;52.690;6.812;2023-12-22T03:50:41;5.70;99.90
52919;DHT22;38793;52.690;6.812;2023-12-22T03:53:07;5.70;99.90
52919;DHT22;38793;52.690;6.812;2023-12-22T03:55:33;5.60;99.90
52919;DHT22;38793;52.690;6.812;2023-12-22T03:57:58;5.60;99.90
52919;DHT22;38793;52.690;6.812;2023-12-22T04:00:24;5.50;99.90
52919;DHT22;38793;52.690;6.812;2023-12-22T04:02:49;5.50;99.90
52919;DHT22;38793;52.690;6.812;2023-12-22T04:05:15;5.50;99.90
52919;DHT22;38793;52.690;6.812;2023-12-22T04:07:41;5.50;99.90
52919;DHT22;38793;52.690;6.812;2023-12-22T04:10:06;5.40;99.90
52919;DHT22;38793;52.690;6.812;2023-12-22T04:12:32;5.40;99.90
52919;DHT22;38793;52.690;6.812;2023-12-22T04:14:58;5.40;99.90
52919;DHT22;38793;52.690;6.812;2023-12-22T04:17:23;5.30;99.90
52919;DHT22;38793;52.690;6.812;2023-12-22T04:19:49;5.30;99.90
52919;DHT22;38793;52.690;6.812;2023-12-22T04:22:14;5.30;99.90
52919;DHT22;38793;52.690;6.812;2023-12-22T04:24:40;5.30;99.90
52919;DHT22;38793;52.690;6.812;2023-12-22T04:27:06;5.30;99.90
52919;DHT22;38793;52.690;6.812;2023-12-22T04:29:31;5.30;99.90
52919;DHT22;38793;52.690;6.812;2023-12-22T04:31:57;5.30;99.90
52919;DHT22;38793;52.690;6.812;2023-12-22T04:34:23;5.30;99.90
52919;DHT22;38793;52.690;6.812;2023-12-22T04:36:48;5.30;99.90
52919;DHT22;38793;52.690;6.812;2023-12-22T04:39:14;5.30;99.90
52919;DHT22;38793;52.690;6.812;2023-12-22T04:41:39;5.30;99.90
52919;DHT22;38793;52.690;6.812;2023-12-22T04:44:05;5.30;99.90
52919;DHT22;38793;52.690;6.812;2023-12-22T04:46:31;5.30;99.90
52919;DHT22;38793;52.690;6.812;2023-12-22T04:48:56;5.30;99.90
52919;DHT22;38793;52.690;6.812;2023-12-22T04:51:22;5.40;99.90
52919;DHT22;38793;52.690;6.812;2023-12-22T04:53:47;5.40;99.90
52919;DHT22;38793;52.690;6.812;2023-12-22T04:56:13;5.50;99.90
52919;DHT22;38793;52.690;6.812;2023-12-22T04:58:38;5.50;99.90
52919;DHT22;38793;52.690;6.812;2023-12-22T05:01:04;5.60;99.90
52919;DHT22;38793;52.690;6.812;2023-12-22T05:03:30;5.60;99.90
52919;DHT22;38793;52.690;6.812;2023-12-22T05:05:55;5.70;99.90
52919;DHT22;38793;52.690;6.812;2023-12-22T05:08:21;5.70;99.90
52919;DHT22;38793;52.690;6.812;2023-12-22T05:10:47;5.80;99.90
52919;DHT22;38793;52.690;6.812;2023-12-22T05:13:12;5.90;99.90
52919;DHT22;38793;52.690;6.812;2023-12-22T05:15:38;5.90;99.90
52919;DHT22;38793;52.690;6.812;2023-12-22T05:18:03;5.90;99.90
52919;DHT22;38793;52.690;6.812;2023-12-22T05:20:29;5.90;99.90
52919;DHT22;38793;52.690;6.812;2023-12-22T05:22:56;5.90;99.90
52919;DHT22;38793;52.690;6.812;2023-12-22T05:25:22;6.00;99.90
52919;DHT22;38793;52.690;6.812;2023-12-22T05:27:47;6.00;99.90
52919;DHT22;38793;52.690;6.812;2023-12-22T05:30:13;6.00;99.90
52919;DHT22;38793;52.690;6.812;2023-12-22T05:32:39;6.10;99.90
52919;DHT22;38793;52.690;6.812;2023-12-22T05:35:05;6.10;99.90
52919;DHT22;38793;52.690;6.812;2023-12-22T05:37:30;6.10;99.90
52919;DHT22;38793;52.690;6.812;2023-12-22T05:39:56;6.10;99.90
52919;DHT22;38793;52.690;6.812;2023-12-22T05:42:21;6.10;99.90
52919;DHT22;38793;52.690;6.812;2023-12-22T05:44:47;6.10;99.90
52919;DHT22;38793;52.690;6.812;2023-12-22T05:47:18;6.10;99.90
52919;DHT22;38793;52.690;6.812;2023-12-22T05:49:44;6.20;99.90
52919;DHT22;38793;52.690;6.812;2023-12-22T05:52:11;6.20;99.90
52919;DHT22;38793;52.690;6.812;2023-12-22T05:54:37;6.20;99.90
52919;DHT22;38793;52.690;6.812;2023-12-22T05:57:03;6.20;99.90
52919;DHT22;38793;52.690;6.812;2023-12-22T05:59:30;6.20;99.90
52919;DHT22;38793;52.690;6.812;2023-12-22T06:01:58;6.20;99.90
52919;DHT22;38793;52.690;6.812;2023-12-22T06:04:24;6.30;99.90
52919;DHT22;38793;52.690;6.812;2023-12-22T06:06:50;6.30;99.90
52919;DHT22;38793;52.690;6.812;2023-12-22T06:09:15;6.20;99.90
52919;DHT22;38793;52.690;6.812;2023-12-22T06:11:42;6.30;99.90
52919;DHT22;38793;52.690;6.812;2023-12-22T06:14:08;6.30;99.90
52919;DHT22;38793;52.690;6.812;2023-12-22T06:16:33;6.30;99.90
52919;DHT22;38793;52.690;6.812;2023-12-22T06:18:59;6.30;99.90
52919;DHT22;38793;52.690;6.812;2023-12-22T06:21:25;6.30;99.90
52919;DHT22;38793;52.690;6.812;2023-12-22T06:23:50;6.40;99.90
52919;DHT22;38793;52.690;6.812;2023-12-22T06:26:16;6.40;99.90
52919;DHT22;38793;52.690;6.812;2023-12-22T06:28:41;6.40;99.90
52919;DHT22;38793;52.690;6.812;2023-12-22T06:31:08;6.40;99.90
52919;DHT22;38793;52.690;6.812;2023-12-22T06:33:34;6.50;99.90
52919;DHT22;38793;52.690;6.812;2023-12-22T06:36:00;6.40;99.90
52919;DHT22;38793;52.690;6.812;2023-12-22T06:38:25;6.40;99.90
52919;DHT22;38793;52.690;6.812;2023-12-22T06:40:51;6.40;99.90
52919;DHT22;38793;52.690;6.812;2023-12-22T06:43:16;6.50;99.90
52919;DHT22;38793;52.690;6.812;2023-12-22T06:45:42;6.40;99.90
52919;DHT22;38793;52.690;6.812;2023-12-22T06:48:08;6.50;99.90
52919;DHT22;38793;52.690;6.812;2023-12-22T06:50:35;6.50;99.90
52919;DHT22;38793;52.690;6.812;2023-12-22T06:53:02;6.50;99.90
52919;DHT22;38793;52.690;6.812;2023-12-22T06:55:28;6.50;99.90
52919;DHT22;38793;52.690;6.812;2023-12-22T06:57:55;6.50;99.90
52919;DHT22;38793;52.690;6.812;2023-12-22T07:00:21;6.50;99.90
52919;DHT22;38793;52.690;6.812;2023-12-22T07:02:46;6.50;99.90
52919;DHT22;38793;52.690;6.812;2023-12-22T07:05:32;6.50;99.90
52919;DHT22;38793;52.690;6.812;2023-12-22T07:07:58;6.60;99.90
52919;DHT22;38793;52.690;6.812;2023-12-22T07:10:24;6.60;99.90
52919;DHT22;38793;52.690;6.812;2023-12-22T07:12:50;6.60;99.90
52919;DHT22;38793;52.690;6.812;2023-12-22T07:15:15;6.60;99.90
52919;DHT22;38793;52.690;6.812;2023-12-22T07:17:41;6.60;99.90
52919;DHT22;38793;52.690;6.812;2023-12-22T07:20:07;6.70;99.90
52919;DHT22;38793;52.690;6.812;2023-12-22T07:22:34;6.70;99.90
52919;DHT22;38793;52.690;6.812;2023-12-22T07:25:00;6.70;99.90
52919;DHT22;38793;52.690;6.812;2023-12-22T07:27:25;6.70;99.90
52919;DHT22;38793;52.690;6.812;2023-12-22T07:29:51;6.70;99.90
52919;DHT22;38793;52.690;6.812;2023-12-22T07:32:16;6.70;99.90
52919;DHT22;38793;52.690;6.812;2023-12-22T07:34:42;6.70;99.90
52919;DHT22;38793;52.690;6.812;2023-12-22T07:37:07;6.70;99.90
52919;DHT22;38793;52.690;6.812;2023-12-22T07:39:33;6.70;99.90
52919;DHT22;38793;52.690;6.812;2023-12-22T07:41:59;6.70;99.90
52919;DHT22;38793;52.690;6.812;2023-12-22T07:44:25;6.70;99.90
52919;DHT22;38793;52.690;6.812;2023-12-22T07:46:57;6.70;99.90
52919;DHT22;38793;52.690;6.812;2023-12-22T07:49:24;6.70;99.90
52919;DHT22;38793;52.690;6.812;2023-12-22T07:51:50;6.70;99.90
52919;DHT22;38793;52.690;6.812;2023-12-22T07:54:17;6.70;99.90
52919;DHT22;38793;52.690;6.812;2023-12-22T07:56:43;6.70;99.90
52919;DHT22;38793;52.690;6.812;2023-12-22T07:59:08;6.70;99.90
52919;DHT22;38793;52.690;6.812;2023-12-22T08:01:34;6.70;99.90
52919;DHT22;38793;52.690;6.812;2023-12-22T08:03:59;6.60;99.90
52919;DHT22;38793;52.690;6.812;2023-12-22T08:06:25;6.60;99.90
52919;DHT22;38793;52.690;6.812;2023-12-22T08:08:50;6.60;99.90
52919;DHT22;38793;52.690;6.812;2023-12-22T08:11:16;6.60;99.90
52919;DHT22;38793;52.690;6.812;2023-12-22T08:13:42;6.60;99.90
52919;DHT22;38793;52.690;6.812;2023-12-22T08:16:07;6.60;99.90
52919;DHT22;38793;52.690;6.812;2023-12-22T08:18:33;6.60;99.90
52919;DHT22;38793;52.690;6.812;2023-12-22T08:20:58;6.60;99.90
52919;DHT22;38793;52.690;6.812;2023-12-22T08:23:24;6.60;99.90
52919;DHT22;38793;52.690;6.812;2023-12-22T08:25:49;6.60;99.90
52919;DHT22;38793;52.690;6.812;2023-12-22T08:28:15;6.60;99.90
52919;DHT22;38793;52.690;6.812;2023-12-22T08:30:41;6.60;99.90
52919;DHT22;38793;52.690;6.812;2023-12-22T08:33:06;6.60;99.90
52919;DHT22;38793;52.690;6.812;2023-12-22T08:35:32;6.70;99.90
52919;DHT22;38793;52.690;6.812;2023-12-22T08:37:57;6.60;99.90
52919;DHT22;38793;52.690;6.812;2023-12-22T08:40:23;6.70;99.90
52919;DHT22;38793;52.690;6.812;2023-12-22T08:42:52;6.70;99.90
52919;DHT22;38793;52.690;6.812;2023-12-22T08:45:20;6.70;99.90
52919;DHT22;38793;52.690;6.812;2023-12-22T08:47:46;6.70;99.90
52919;DHT22;38793;52.690;6.812;2023-12-22T08:50:12;6.70;99.90
52919;DHT22;38793;52.690;6.812;2023-12-22T08:52:38;6.70;99.90
52919;DHT22;38793;52.690;6.812;2023-12-22T08:55:04;6.80;99.90
52919;DHT22;38793;52.690;6.812;2023-12-22T08:57:30;6.80;99.90
52919;DHT22;38793;52.690;6.812;2023-12-22T08:59:57;6.80;99.90
52919;DHT22;38793;52.690;6.812;2023-12-22T09:02:23;6.80;99.90
52919;DHT22;38793;52.690;6.812;2023-12-22T09:04:48;6.80;99.90
52919;DHT22;38793;52.690;6.812;2023-12-22T09:07:14;6.90;99.90
52919;DHT22;38793;52.690;6.812;2023-12-22T09:09:39;6.90;99.90
52919;DHT22;38793;52.690;6.812;2023-12-22T09:12:05;6.90;99.90
52919;DHT22;38793;52.690;6.812;2023-12-22T09:14:31;6.90;99.90
52919;DHT22;38793;52.690;6.812;2023-12-22T09:16:57;6.90;99.90
52919;DHT22;38793;52.690;6.812;2023-12-22T09:19:22;6.90;99.90
52919;DHT22;38793;52.690;6.812;2023-12-22T09:21:48;6.90;99.90
52919;DHT22;38793;52.690;6.812;2023-12-22T09:24:14;6.90;99.90
52919;DHT22;38793;52.690;6.812;2023-12-22T09:26:42;7.00;99.90
52919;DHT22;38793;52.690;6.812;2023-12-22T09:29:07;7.00;99.90
52919;DHT22;38793;52.690;6.812;2023-12-22T09:31:33;7.20;99.90
52919;DHT22;38793;52.690;6.812;2023-12-22T09:33:58;8.10;99.90
52919;DHT22;38793;52.690;6.812;2023-12-22T09:36:24;8.80;99.90
52919;DHT22;38793;52.690;6.812;2023-12-22T09:38:49;9.00;99.90
52919;DHT22;38793;52.690;6.812;2023-12-22T09:41:15;8.90;99.90
52919;DHT22;38793;52.690;6.812;2023-12-22T09:43:42;8.70;99.90
52919;DHT22;38793;52.690;6.812;2023-12-22T09:46:11;8.60;99.90
52919;DHT22;38793;52.690;6.812;2023-12-22T09:48:37;8.30;99.90
52919;DHT22;38793;52.690;6.812;2023-12-22T09:51:05;8.10;99.90
52919;DHT22;38793;52.690;6.812;2023-12-22T09:53:33;7.90;99.90
52919;DHT22;38793;52.690;6.812;2023-12-22T09:55:59;7.70;99.90
52919;DHT22;38793;52.690;6.812;2023-12-22T09:58:25;7.60;99.90
52919;DHT22;38793;52.690;6.812;2023-12-22T10:00:51;7.50;99.90
52919;DHT22;38793;52.690;6.812;2023-12-22T10:03:19;7.40;99.90
52919;DHT22;38793;52.690;6.812;2023-12-22T10:05:45;7.40;99.90
52919;DHT22;38793;52.690;6.812;2023-12-22T10:08:12;7.30;99.90
52919;DHT22;38793;52.690;6.812;2023-12-22T10:10:38;7.30;99.90
52919;DHT22;38793;52.690;6.812;2023-12-22T10:13:04;7.20;99.90
52919;DHT22;38793;52.690;6.812;2023-12-22T10:15:36;7.10;99.90
52919;DHT22;38793;52.690;6.812;2023-12-22T10:18:03;7.10;99.90
52919;DHT22;38793;52.690;6.812;2023-12-22T10:20:29;7.10;99.90
52919;DHT22;38793;52.690;6.812;2023-12-22T10:22:54;7.00;99.90
52919;DHT22;38793;52.690;6.812;2023-12-22T10:25:20;7.00;99.90
52919;DHT22;38793;52.690;6.812;2023-12-22T10:27:46;6.90;99.90
52919;DHT22;38793;52.690;6.812;2023-12-22T10:30:12;6.90;99.90
52919;DHT22;38793;52.690;6.812;2023-12-22T10:32:41;6.90;99.90
52919;DHT22;38793;52.690;6.812;2023-12-22T10:35:08;6.80;99.90
52919;DHT22;38793;52.690;6.812;2023-12-22T10:37:34;6.80;99.90
52919;DHT22;38793;52.690;6.812;2023-12-22T10:39:59;6.80;99.90
52919;DHT22;38793;52.690;6.812;2023-12-22T10:42:25;6.70;99.90
52919;DHT22;38793;52.690;6.812;2023-12-22T10:44:52;6.80;99.90
52919;DHT22;38793;52.690;6.812;2023-12-22T10:47:18;6.70;99.90
52919;DHT22;38793;52.690;6.812;2023-12-22T10:49:46;6.80;99.90
52919;DHT22;38793;52.690;6.812;2023-12-22T10:52:18;6.70;99.90
52919;DHT22;38793;52.690;6.812;2023-12-22T10:54:45;6.70;99.90
52919;DHT22;38793;52.690;6.812;2023-12-22T10:57:12;6.70;99.90
52919;DHT22;38793;52.690;6.812;2023-12-22T10:59:44;6.70;99.90
52919;DHT22;38793;52.690;6.812;2023-12-22T11:02:15;6.70;99.90
52919;DHT22;38793;52.690;6.812;2023-12-22T11:04:47;6.70;99.90
52919;DHT22;38793;52.690;6.812;2023-12-22T11:07:17;6.70;99.90
52919;DHT22;38793;52.690;6.812;2023-12-22T11:09:44;6.70;99.90
52919;DHT22;38793;52.690;6.812;2023-12-22T11:12:12;6.80;99.90
52919;DHT22;38793;52.690;6.812;2023-12-22T11:14:39;6.80;99.90
52919;DHT22;38793;52.690;6.812;2023-12-22T11:17:05;6.80;99.90
52919;DHT22;38793;52.690;6.812;2023-12-22T11:19:33;6.80;99.90
52919;DHT22;38793;52.690;6.812;2023-12-22T11:22:01;6.80;99.90
52919;DHT22;38793;52.690;6.812;2023-12-22T11:24:29;6.90;99.90
52919;DHT22;38793;52.690;6.812;2023-12-22T11:26:57;6.90;99.90
52919;DHT22;38793;52.690;6.812;2023-12-22T11:29:24;6.90;99.90
52919;DHT22;38793;52.690;6.812;2023-12-22T11:31:54;6.90;99.90
52919;DHT22;38793;52.690;6.812;2023-12-22T11:34:22;6.90;99.90
52919;DHT22;38793;52.690;6.812;2023-12-22T11:36:49;6.90;99.90
52919;DHT22;38793;52.690;6.812;2023-12-22T11:39:15;6.90;99.90
52919;DHT22;38793;52.690;6.812;2023-12-22T11:41:42;6.90;99.90
52919;DHT22;38793;52.690;6.812;2023-12-22T11:44:08;7.00;99.90
52919;DHT22;38793;52.690;6.812;2023-12-22T11:46:34;7.00;99.90
52919;DHT22;38793;52.690;6.812;2023-12-22T11:49:00;7.00;99.90
52919;DHT22;38793;52.690;6.812;2023-12-22T11:51:32;7.00;99.90
52919;DHT22;38793;52.690;6.812;2023-12-22T11:53:59;7.00;99.90
52919;DHT22;38793;52.690;6.812;2023-12-22T11:56:25;7.00;99.90
52919;DHT22;38793;52.690;6.812;2023-12-22T11:58:52;7.00;99.90
52919;DHT22;38793;52.690;6.812;2023-12-22T12:01:22;7.00;99.90
52919;DHT22;38793;52.690;6.812;2023-12-22T12:06:16;7.10;99.90
52919;DHT22;38793;52.690;6.812;2023-12-22T12:08:42;7.10;99.90
52919;DHT22;38793;52.690;6.812;2023-12-22T12:11:08;7.10;99.90
52919;DHT22;38793;52.690;6.812;2023-12-22T12:13:34;7.10;99.90
52919;DHT22;38793;52.690;6.812;2023-12-22T12:16:00;7.10;99.90
52919;DHT22;38793;52.690;6.812;2023-12-22T12:18:31;7.10;99.90
52919;DHT22;38793;52.690;6.812;2023-12-22T12:20:57;7.10;99.90
52919;DHT22;38793;52.690;6.812;2023-12-22T12:23:27;7.10;99.90
52919;DHT22;38793;52.690;6.812;2023-12-22T12:25:54;7.10;99.90
52919;DHT22;38793;52.690;6.812;2023-12-22T12:28:32;7.10;99.90
52919;DHT22;38793;52.690;6.812;2023-12-22T12:31:00;7.20;99.90
52919;DHT22;38793;52.690;6.812;2023-12-22T12:33:27;7.20;99.90
52919;DHT22;38793;52.690;6.812;2023-12-22T12:35:54;7.20;99.90
52919;DHT22;38793;52.690;6.812;2023-12-22T12:38:23;7.20;99.90
52919;DHT22;38793;52.690;6.812;2023-12-22T12:40:50;7.20;99.90
52919;DHT22;38793;52.690;6.812;2023-12-22T12:43:16;7.20;99.90
52919;DHT22;38793;52.690;6.812;2023-12-22T12:45:42;7.20;99.90
52919;DHT22;38793;52.690;6.812;2023-12-22T12:48:08;7.20;99.90
52919;DHT22;38793;52.690;6.812;2023-12-22T12:50:33;7.20;99.90
52919;DHT22;38793;52.690;6.812;2023-12-22T12:52:59;7.20;99.90
52919;DHT22;38793;52.690;6.812;2023-12-22T12:55:26;7.20;99.90
52919;DHT22;38793;52.690;6.812;2023-12-22T12:57:52;7.20;99.90
52919;DHT22;38793;52.690;6.812;2023-12-22T13:00:29;7.20;99.90
52919;DHT22;38793;52.690;6.812;2023-12-22T13:03:05;7.20;99.90
52919;DHT22;38793;52.690;6.812;2023-12-22T13:05:31;7.20;99.90
52919;DHT22;38793;52.690;6.812;2023-12-22T13:08:08;7.20;99.90
52919;DHT22;38793;52.690;6.812;2023-12-22T13:10:34;7.20;99.90
52919;DHT22;38793;52.690;6.812;2023-12-22T13:13:00;7.20;99.90
52919;DHT22;38793;52.690;6.812;2023-12-22T13:15:25;7.20;99.90
52919;DHT22;38793;52.690;6.812;2023-12-22T13:17:51;7.20;99.90
52919;DHT22;38793;52.690;6.812;2023-12-22T13:20:17;7.20;99.90
52919;DHT22;38793;52.690;6.812;2023-12-22T13:22:44;7.20;99.90
52919;DHT22;38793;52.690;6.812;2023-12-22T13:25:09;7.20;99.90
52919;DHT22;38793;52.690;6.812;2023-12-22T13:27:47;7.20;99.90
52919;DHT22;38793;52.690;6.812;2023-12-22T13:30:37;7.20;99.90
52919;DHT22;38793;52.690;6.812;2023-12-22T13:33:06;7.20;99.90
52919;DHT22;38793;52.690;6.812;2023-12-22T13:35:32;7.20;99.90
52919;DHT22;38793;52.690;6.812;2023-12-22T13:38:00;7.20;99.90
52919;DHT22;38793;52.690;6.812;2023-12-22T13:40:26;7.20;99.90
52919;DHT22;38793;52.690;6.812;2023-12-22T13:42:58;7.20;99.90
52919;DHT22;38793;52.690;6.812;2023-12-22T13:45:25;7.20;99.90
52919;DHT22;38793;52.690;6.812;2023-12-22T13:47:51;7.20;99.90
52919;DHT22;38793;52.690;6.812;2023-12-22T13:50:17;7.20;99.90
52919;DHT22;38793;52.690;6.812;2023-12-22T13:52:44;7.20;99.90
52919;DHT22;38793;52.690;6.812;2023-12-22T13:55:11;7.20;99.90
52919;DHT22;38793;52.690;6.812;2023-12-22T13:57:37;7.20;99.90
52919;DHT22;38793;52.690;6.812;2023-12-22T14:00:26;7.20;99.90
52919;DHT22;38793;52.690;6.812;2023-12-22T14:02:53;7.20;99.90
52919;DHT22;38793;52.690;6.812;2023-12-22T14:05:19;7.10;99.90
52919;DHT22;38793;52.690;6.812;2023-12-22T14:07:45;7.20;99.90
52919;DHT22;38793;52.690;6.812;2023-12-22T14:10:11;7.10;99.90
52919;DHT22;38793;52.690;6.812;2023-12-22T14:12:38;7.10;99.90
52919;DHT22;38793;52.690;6.812;2023-12-22T14:15:07;7.10;99.90
52919;DHT22;38793;52.690;6.812;2023-12-22T14:17:33;7.10;99.90
52919;DHT22;38793;52.690;6.812;2023-12-22T14:19:58;7.10;99.90
52919;DHT22;38793;52.690;6.812;2023-12-22T14:22:24;7.10;99.90
52919;DHT22;38793;52.690;6.812;2023-12-22T14:24:50;7.10;99.90
52919;DHT22;38793;52.690;6.812;2023-12-22T14:27:16;7.10;99.90
52919;DHT22;38793;52.690;6.812;2023-12-22T14:29:44;7.10;99.90
52919;DHT22;38793;52.690;6.812;2023-12-22T14:32:09;7.10;99.90
52919;DHT22;38793;52.690;6.812;2023-12-22T14:34:37;7.10;99.90
52919;DHT22;38793;52.690;6.812;2023-12-22T14:37:03;7.10;99.90
52919;DHT22;38793;52.690;6.812;2023-12-22T14:39:29;7.10;99.90
52919;DHT22;38793;52.690;6.812;2023-12-22T14:41:56;7.10;99.90
52919;DHT22;38793;52.690;6.812;2023-12-22T14:44:21;7.10;99.90
52919;DHT22;38793;52.690;6.812;2023-12-22T14:46:47;7.10;99.90
52919;DHT22;38793;52.690;6.812;2023-12-22T14:49:12;7.10;99.90
52919;DHT22;38793;52.690;6.812;2023-12-22T14:51:38;7.10;99.90
52919;DHT22;38793;52.690;6.812;2023-12-22T14:54:05;7.10;99.90
52919;DHT22;38793;52.690;6.812;2023-12-22T14:56:30;7.10;99.90
52919;DHT22;38793;52.690;6.812;2023-12-22T14:58:56;7.10;99.90
52919;DHT22;38793;52.690;6.812;2023-12-22T15:01:22;7.20;99.90
52919;DHT22;38793;52.690;6.812;2023-12-22T15:03:47;7.10;99.90
52919;DHT22;38793;52.690;6.812;2023-12-22T15:06:13;7.10;99.90
52919;DHT22;38793;52.690;6.812;2023-12-22T15:08:38;7.10;99.90
52919;DHT22;38793;52.690;6.812;2023-12-22T15:11:04;7.10;99.90
52919;DHT22;38793;52.690;6.812;2023-12-22T15:13:30;7.10;99.90
52919;DHT22;38793;52.690;6.812;2023-12-22T15:15:55;7.10;99.90
52919;DHT22;38793;52.690;6.812;2023-12-22T15:18:21;7.10;99.90
52919;DHT22;38793;52.690;6.812;2023-12-22T15:20:46;7.10;99.90
52919;DHT22;38793;52.690;6.812;2023-12-22T15:23:14;7.10;99.90
52919;DHT22;38793;52.690;6.812;2023-12-22T15:25:40;7.10;99.90
52919;DHT22;38793;52.690;6.812;2023-12-22T15:28:05;7.10;99.90
52919;DHT22;38793;52.690;6.812;2023-12-22T15:30:31;7.10;99.90
52919;DHT22;38793;52.690;6.812;2023-12-22T15:32:56;7.10;99.90
52919;DHT22;38793;52.690;6.812;2023-12-22T15:35:22;7.10;99.90
52919;DHT22;38793;52.690;6.812;2023-12-22T15:37:47;7.10;99.90
52919;DHT22;38793;52.690;6.812;2023-12-22T15:40:13;7.10;99.90
52919;DHT22;38793;52.690;6.812;2023-12-22T15:42:39;7.10;99.90